createdAt,value
2018-07-13T00:00:38.734Z,65.27
2018-07-13T00:01:38.712Z,65.37
2018-07-13T00:02:38.701Z,65.97
2018-07-13T00:03:38.764Z,65.41
2018-07-13T00:04:38.685Z,65.80
2018-07-13T00:05:38.668Z,65.30
2018-07-13T00:06:38.660Z,65.50
2018-07-13T00:07:38.649Z,65.60
2018-07-13T00:08:38.701Z,66.00
2018-07-13T00:09:38.693Z,65.80
2018-07-13T00:10:38.613Z,65.50
2018-07-13T00:11:38.602Z,65.91
2018-07-13T00:12:38.591Z,67.11
2018-07-13T00:13:38.579Z,66.84
2018-07-13T00:14:38.643Z,66.84
2018-07-13T00:15:38.576Z,66.91
2018-07-13T00:16:38.547Z,66.51
2018-07-13T00:17:41.096Z,66.81
2018-07-13T00:18:38.535Z,65.94
2018-07-13T00:19:38.583Z,65.33
2018-07-13T00:20:38.511Z,65.64
2018-07-13T00:21:38.499Z,66.34
2018-07-13T00:22:38.486Z,66.03
2018-07-13T00:23:38.477Z,65.64
2018-07-13T00:24:38.530Z,65.03
2018-07-13T00:25:38.452Z,65.53
2018-07-13T00:26:38.446Z,66.34
2018-07-13T00:27:38.450Z,65.91
2018-07-13T00:28:38.422Z,66.64
2018-07-13T00:29:38.475Z,67.04
2018-07-13T00:30:38.400Z,66.64
2018-07-13T00:31:38.386Z,67.14
2018-07-13T00:32:38.383Z,67.14
2018-07-13T00:33:38.364Z,67.65
2018-07-13T00:34:38.419Z,67.44
2018-07-13T00:35:38.349Z,67.47
2018-07-13T00:36:38.334Z,67.85
2018-07-13T00:37:38.324Z,67.88
2018-07-13T00:38:39.096Z,67.78
2018-07-13T00:39:38.377Z,68.38
2018-07-13T00:40:38.290Z,68.88
2018-07-13T00:41:38.278Z,68.18
2018-07-13T00:42:38.274Z,68.28
2018-07-13T00:43:38.262Z,68.18
2018-07-13T00:44:38.330Z,68.88
2018-07-13T00:45:38.240Z,67.98
2018-07-13T00:46:38.230Z,68.08
2018-07-13T00:47:38.215Z,68.08
2018-07-13T00:48:38.204Z,68.88
2018-07-13T00:49:38.264Z,67.98
2018-07-13T00:50:38.187Z,68.01
2018-07-13T00:51:38.174Z,68.59
2018-07-13T00:52:38.160Z,69.29
2018-07-13T00:53:38.155Z,69.38
2018-07-13T00:54:38.138Z,69.38
2018-07-13T00:55:38.195Z,69.42
2018-07-13T00:56:38.141Z,69.32
2018-07-13T00:57:38.104Z,69.12
2018-07-13T00:58:38.094Z,68.71
2018-07-13T00:59:38.602Z,69.12
2018-07-13T01:00:38.140Z,69.82
2018-07-13T01:01:38.066Z,69.72
2018-07-13T01:02:38.055Z,69.72
2018-07-13T01:03:38.044Z,69.72
2018-07-13T01:04:38.030Z,69.65
2018-07-13T01:05:38.089Z,69.56
2018-07-13T01:06:38.008Z,69.35
2018-07-13T01:07:38.005Z,69.25
2018-07-13T01:08:37.989Z,68.75
2018-07-13T01:09:37.975Z,70.16
2018-07-13T01:10:38.166Z,70.36
2018-07-13T01:11:37.954Z,69.85
2018-07-13T01:12:37.942Z,70.46
2018-07-13T01:13:37.936Z,70.26
2018-07-13T01:14:37.925Z,70.06
2018-07-13T01:15:37.978Z,70.26
2018-07-13T01:16:37.902Z,71.16
2018-07-13T01:17:37.890Z,70.86
2018-07-13T01:18:37.878Z,70.66
2018-07-13T01:19:37.875Z,69.96
2018-07-13T01:20:38.169Z,71.36
2018-07-13T01:21:37.848Z,71.16
2018-07-13T01:22:37.837Z,71.26
2018-07-13T01:23:37.826Z,71.36
2018-07-13T01:24:37.815Z,70.66
2018-07-13T01:25:37.870Z,70.36
2018-07-13T01:26:37.793Z,71.67
2018-07-13T01:27:37.781Z,70.86
2018-07-13T01:28:37.771Z,71.16
2018-07-13T01:29:37.767Z,70.26
2018-07-13T01:30:37.815Z,71.06
2018-07-13T01:31:37.740Z,70.26
2018-07-13T01:32:37.729Z,68.68
2018-07-13T01:33:37.715Z,70.39
2018-07-13T01:34:37.707Z,71.91
2018-07-13T01:35:37.764Z,70.90
2018-07-13T01:36:37.687Z,70.19
2018-07-13T01:37:37.673Z,69.49
2018-07-13T01:38:37.674Z,70.59
2018-07-13T01:39:37.654Z,70.59
2018-07-13T01:40:37.651Z,69.99
2018-07-13T01:41:38.164Z,71.50
2018-07-13T01:42:37.624Z,72.00
2018-07-13T01:43:37.610Z,71.80
2018-07-13T01:44:45.727Z,71.50
2018-07-13T01:45:45.798Z,71.91
2018-07-13T01:48:15.136Z,72.20
2018-07-13T01:49:15.062Z,72.31
2018-07-13T01:50:22.563Z,72.41
2018-07-13T01:51:23.281Z,71.84
2018-07-13T01:52:22.540Z,73.05
2018-07-13T01:53:22.529Z,72.04
2018-07-13T01:54:23.154Z,71.13
2018-07-13T01:55:23.077Z,71.70
2018-07-13T01:56:23.130Z,72.41
2018-07-13T01:57:14.968Z,72.20
2018-07-13T01:58:23.097Z,72.20
2018-07-13T01:59:23.107Z,72.24
2018-07-13T02:00:23.128Z,72.85
2018-07-13T02:01:22.512Z,73.25
2018-07-13T02:02:23.016Z,71.94
2018-07-13T02:03:14.904Z,72.34
2018-07-13T02:04:14.893Z,73.35
2018-07-13T02:05:14.884Z,71.84
2018-07-13T02:06:23.099Z,72.94
2018-07-13T02:07:23.546Z,73.95
2018-07-13T02:08:23.066Z,73.38
2018-07-13T02:09:22.361Z,73.28
2018-07-13T02:10:27.793Z,72.78
2018-07-13T02:11:22.434Z,73.58
2018-07-13T02:12:24.317Z,73.05
2018-07-13T02:13:22.369Z,71.26
2018-07-13T02:14:22.878Z,71.87
2018-07-13T02:15:22.361Z,71.87
2018-07-13T02:16:22.286Z,72.17
2018-07-13T02:17:22.964Z,73.08
2018-07-13T02:18:22.280Z,74.08
2018-07-13T02:19:22.303Z,74.59
2018-07-13T02:20:22.815Z,73.88
2018-07-13T02:21:23.370Z,73.18
2018-07-13T02:22:22.299Z,74.79
2018-07-13T02:23:22.840Z,73.11
2018-07-13T02:24:22.838Z,74.79
2018-07-13T02:25:22.743Z,74.22
2018-07-13T02:26:22.753Z,74.22
2018-07-13T02:27:22.824Z,73.62
2018-07-13T02:28:23.272Z,74.83
2018-07-13T02:29:22.789Z,73.42
2018-07-13T02:30:22.777Z,73.22
2018-07-13T02:31:14.613Z,73.55
2018-07-13T02:32:14.666Z,74.83
2018-07-13T02:33:15.478Z,74.63
2018-07-13T02:34:14.572Z,73.96
2018-07-13T02:35:14.570Z,73.42
2018-07-13T02:36:14.553Z,74.05
2018-07-13T02:37:14.611Z,72.44
2018-07-13T02:38:14.530Z,73.22
2018-07-13T02:39:14.620Z,74.56
2018-07-13T02:40:14.511Z,74.46
2018-07-13T02:41:14.500Z,74.87
2018-07-13T02:42:14.555Z,73.35
2018-07-13T02:43:14.486Z,73.25
2018-07-13T02:44:14.469Z,72.24
2018-07-13T02:45:14.512Z,73.45
2018-07-13T02:46:14.447Z,74.66
2018-07-13T02:47:14.508Z,74.66
2018-07-13T02:48:14.428Z,73.55
2018-07-13T02:49:14.417Z,74.96
2018-07-13T02:50:14.403Z,73.38
2018-07-13T02:51:14.980Z,73.15
2018-07-13T02:52:14.449Z,73.28
2018-07-13T02:53:14.373Z,73.28
2018-07-13T02:54:14.376Z,73.69
2018-07-13T02:55:14.351Z,74.80
2018-07-13T02:56:14.337Z,73.38
2018-07-13T02:57:14.395Z,74.60
2018-07-13T02:58:14.319Z,74.69
2018-07-13T02:59:14.306Z,74.49
2018-07-13T03:00:14.296Z,75.00
2018-07-13T03:01:14.286Z,74.19
2018-07-13T03:02:14.343Z,74.69
2018-07-13T03:03:14.265Z,73.52
2018-07-13T03:04:14.254Z,74.29
2018-07-13T03:05:14.244Z,72.81
2018-07-13T03:06:14.291Z,74.63
2018-07-13T03:07:14.298Z,72.98
2018-07-13T03:08:14.207Z,74.13
2018-07-13T03:09:14.199Z,73.93
2018-07-13T03:10:14.188Z,75.04
2018-07-13T03:11:14.177Z,75.13
2018-07-13T03:12:14.971Z,75.24
2018-07-13T03:13:14.226Z,74.73
2018-07-13T03:14:14.150Z,74.73
2018-07-13T03:15:14.141Z,75.27
2018-07-13T03:16:14.125Z,74.84
2018-07-13T03:17:14.116Z,72.55
2018-07-13T03:18:14.169Z,74.77
2018-07-13T03:19:14.114Z,75.13
2018-07-13T03:20:14.084Z,74.84
2018-07-13T03:21:14.069Z,74.26
2018-07-13T03:22:14.067Z,75.17
2018-07-13T03:23:14.116Z,73.55
2018-07-13T03:24:14.039Z,73.46
2018-07-13T03:25:14.039Z,72.44
2018-07-13T03:26:14.017Z,74.77
2018-07-13T03:27:14.008Z,75.27
2018-07-13T03:28:14.058Z,75.17
2018-07-13T03:29:13.999Z,75.17
2018-07-13T03:30:13.977Z,75.37
2018-07-13T03:31:13.970Z,75.88
2018-07-13T03:32:13.953Z,75.27
2018-07-13T03:33:15.548Z,75.48
2018-07-13T03:34:13.934Z,75.57
2018-07-13T03:35:13.922Z,73.46
2018-07-13T03:36:13.912Z,75.68
2018-07-13T03:37:13.898Z,75.31
2018-07-13T03:38:14.010Z,75.51
2018-07-13T03:39:13.876Z,75.37
2018-07-13T03:40:13.870Z,74.37
2018-07-13T03:41:13.856Z,75.37
2018-07-13T03:42:13.845Z,76.12
2018-07-13T03:43:13.903Z,75.48
2018-07-13T03:44:13.823Z,75.41
2018-07-13T03:45:13.815Z,75.51
2018-07-13T03:46:13.804Z,76.02
2018-07-13T03:47:13.796Z,76.12
2018-07-13T03:48:13.878Z,75.61
2018-07-13T03:49:13.768Z,75.01
2018-07-13T03:50:13.757Z,76.52
2018-07-13T03:51:13.752Z,76.22
2018-07-13T03:52:13.735Z,75.10
2018-07-13T03:53:13.799Z,75.81
2018-07-13T03:54:15.519Z,73.08
2018-07-13T03:55:13.707Z,73.25
2018-07-13T03:56:13.693Z,73.49
2018-07-13T03:57:13.685Z,73.39
2018-07-13T03:58:13.756Z,73.49
2018-07-13T03:59:13.666Z,73.59
2018-07-13T04:00:13.655Z,73.86
2018-07-13T04:01:13.643Z,74.60
2018-07-13T04:02:13.633Z,73.96
2018-07-13T04:03:13.687Z,73.90
2018-07-13T04:04:13.608Z,73.46
2018-07-13T04:05:13.596Z,73.35
2018-07-13T04:06:13.591Z,73.05
2018-07-13T04:07:13.578Z,73.66
2018-07-13T04:08:13.633Z,74.46
2018-07-13T04:09:13.558Z,73.96
2018-07-13T04:10:13.544Z,74.46
2018-07-13T04:11:13.533Z,75.27
2018-07-13T04:12:13.522Z,75.17
2018-07-13T04:13:13.514Z,75.21
2018-07-13T04:14:13.569Z,75.27
2018-07-13T04:15:14.470Z,75.21
2018-07-13T04:16:13.481Z,75.37
2018-07-13T04:17:13.470Z,75.27
2018-07-13T04:18:13.459Z,75.37
2018-07-13T04:19:13.525Z,75.57
2018-07-13T04:20:13.455Z,75.51
2018-07-13T04:21:13.452Z,75.48
2018-07-13T04:22:13.414Z,75.57
2018-07-13T04:23:13.406Z,74.80
2018-07-13T04:24:13.463Z,74.87
2018-07-13T04:25:13.387Z,73.55
2018-07-13T04:26:13.374Z,74.77
2018-07-13T04:27:13.362Z,75.48
2018-07-13T04:28:13.352Z,75.61
2018-07-13T04:29:13.403Z,74.16
2018-07-13T04:30:13.332Z,74.87
2018-07-13T04:31:13.321Z,74.87
2018-07-13T04:32:13.314Z,75.78
2018-07-13T04:33:13.298Z,75.98
2018-07-13T04:34:13.414Z,75.27
2018-07-13T04:35:13.280Z,75.78
2018-07-13T04:36:13.975Z,75.37
2018-07-13T04:37:13.259Z,75.17
2018-07-13T04:38:13.245Z,75.17
2018-07-13T04:39:13.303Z,75.27
2018-07-13T04:40:13.228Z,75.98
2018-07-13T04:41:13.213Z,75.48
2018-07-13T04:42:13.204Z,74.97
2018-07-13T04:43:13.190Z,75.37
2018-07-13T04:44:13.547Z,74.87
2018-07-13T04:45:13.171Z,73.75
2018-07-13T04:46:13.162Z,72.64
2018-07-13T04:47:13.154Z,73.46
2018-07-13T04:48:13.137Z,72.95
2018-07-13T04:49:13.193Z,73.35
2018-07-13T04:50:13.153Z,72.64
2018-07-13T04:51:13.107Z,74.43
2018-07-13T04:52:13.098Z,74.73
2018-07-13T04:53:13.090Z,75.13
2018-07-13T04:54:13.148Z,75.24
2018-07-13T04:55:13.073Z,74.63
2018-07-13T04:56:13.058Z,74.73
2018-07-13T04:57:13.970Z,75.13
2018-07-13T04:58:13.034Z,75.54
2018-07-13T04:59:13.120Z,75.04
2018-07-13T05:00:13.018Z,75.54
2018-07-13T05:01:13.005Z,75.44
2018-07-13T05:02:12.991Z,75.95
2018-07-13T05:03:12.980Z,76.25
2018-07-13T05:04:13.038Z,75.64
2018-07-13T05:05:12.962Z,75.84
2018-07-13T05:06:12.953Z,75.44
2018-07-13T05:07:12.935Z,75.54
2018-07-13T05:08:12.925Z,75.54
2018-07-13T05:09:12.990Z,75.84
2018-07-13T05:10:12.916Z,75.74
2018-07-13T05:11:12.901Z,75.84
2018-07-13T05:12:12.894Z,75.64
2018-07-13T05:13:12.894Z,75.54
2018-07-13T05:14:12.940Z,75.95
2018-07-13T05:15:12.852Z,75.84
2018-07-13T05:16:12.838Z,75.40
2018-07-13T05:17:12.830Z,75.71
2018-07-13T05:18:15.463Z,75.10
2018-07-13T05:19:12.888Z,75.20
2018-07-13T05:20:12.794Z,75.91
2018-07-13T05:21:12.820Z,75.20
2018-07-13T05:22:12.844Z,74.09
2018-07-13T05:23:12.766Z,73.49
2018-07-13T05:24:12.761Z,73.89
2018-07-13T05:25:12.808Z,73.99
2018-07-13T05:26:12.733Z,75.07
2018-07-13T05:27:12.724Z,74.87
2018-07-13T05:28:12.711Z,74.66
2018-07-13T05:29:12.703Z,74.05
2018-07-13T05:30:12.787Z,74.16
2018-07-13T05:31:12.694Z,74.05
2018-07-13T05:32:12.670Z,73.25
2018-07-13T05:33:12.661Z,73.11
2018-07-13T05:34:12.669Z,72.20
2018-07-13T05:35:12.722Z,73.45
2018-07-13T05:36:12.631Z,73.01
2018-07-13T05:37:12.626Z,72.11
2018-07-13T05:38:12.612Z,73.22
2018-07-13T05:39:13.463Z,73.72
2018-07-13T05:40:12.651Z,72.98
2018-07-13T05:41:12.589Z,73.32
2018-07-13T05:42:12.562Z,73.58
2018-07-13T05:43:12.567Z,71.97
2018-07-13T05:44:12.540Z,72.38
2018-07-13T05:45:12.617Z,73.48
2018-07-13T05:46:12.521Z,73.28
2018-07-13T05:47:12.510Z,72.88
2018-07-13T05:48:12.501Z,74.79
2018-07-13T05:49:20.604Z,74.15
2018-07-13T05:50:12.546Z,74.39
2018-07-13T05:51:44.542Z,72.74
2018-07-13T05:52:12.462Z,73.28
2018-07-13T05:53:12.450Z,73.14
2018-07-13T05:54:13.058Z,72.24
2018-07-13T05:55:12.495Z,73.45
2018-07-13T05:56:19.942Z,73.45
2018-07-13T05:57:19.928Z,72.81
2018-07-13T05:58:20.546Z,73.41
2018-07-13T05:59:19.919Z,73.32
2018-07-13T06:00:19.995Z,73.08
2018-07-13T06:01:19.919Z,72.77
2018-07-13T06:02:12.355Z,72.47
2018-07-13T06:03:12.344Z,72.27
2018-07-13T06:04:12.331Z,71.87
2018-07-13T06:05:12.388Z,71.23
2018-07-13T06:06:12.311Z,71.63
2018-07-13T06:07:12.300Z,71.63
2018-07-13T06:08:12.287Z,71.53
2018-07-13T06:09:12.276Z,70.83
2018-07-13T06:10:12.337Z,71.33
2018-07-13T06:11:12.259Z,71.50
2018-07-13T06:12:12.253Z,71.20
2018-07-13T06:13:12.251Z,70.50
2018-07-13T06:14:12.229Z,70.50
2018-07-13T06:15:12.340Z,69.85
2018-07-13T06:16:12.212Z,70.36
2018-07-13T06:17:12.202Z,69.85
2018-07-13T06:18:12.184Z,69.85
2018-07-13T06:19:12.178Z,69.72
2018-07-13T06:20:12.235Z,69.42
2018-07-13T06:21:12.151Z,69.12
2018-07-13T06:22:13.266Z,68.52
2018-07-13T06:23:12.143Z,68.82
2018-07-13T06:24:12.149Z,67.98
2018-07-13T06:25:12.113Z,67.08
2018-07-13T06:26:12.168Z,67.58
2018-07-13T06:27:12.089Z,67.85
2018-07-13T06:28:12.076Z,66.85
2018-07-13T06:29:12.073Z,67.65
2018-07-13T06:30:12.116Z,67.35
2018-07-13T06:31:12.113Z,67.61
2018-07-13T06:32:12.039Z,66.52
2018-07-13T06:33:12.025Z,66.82
2018-07-13T06:34:12.016Z,66.41
2018-07-13T06:35:12.008Z,65.91
2018-07-13T06:36:12.063Z,66.18
2018-07-13T06:37:11.983Z,66.28
2018-07-13T06:38:11.974Z,65.78
2018-07-13T06:39:11.963Z,65.65
2018-07-13T06:40:11.952Z,65.45
2018-07-13T06:41:12.008Z,65.31
2018-07-13T06:42:11.932Z,65.25
2018-07-13T06:43:12.768Z,64.92
2018-07-13T06:44:11.912Z,65.01
2018-07-13T06:45:11.903Z,63.78
2018-07-13T06:46:11.951Z,63.78
2018-07-13T06:47:11.887Z,63.85
2018-07-13T06:48:11.873Z,63.78
2018-07-13T06:49:11.862Z,63.15
2018-07-13T06:50:11.852Z,63.02
2018-07-13T06:51:11.904Z,62.85
2018-07-13T06:52:11.830Z,62.72
2018-07-13T06:53:11.819Z,62.12
2018-07-13T06:54:11.805Z,61.92
2018-07-13T06:55:11.800Z,61.92
2018-07-13T06:56:11.855Z,62.39
2018-07-13T06:57:11.779Z,61.99
2018-07-13T06:58:11.766Z,61.59
2018-07-13T06:59:11.761Z,61.49
2018-07-13T07:00:11.747Z,61.57
2018-07-13T07:01:11.805Z,60.86
2018-07-13T07:02:11.725Z,60.83
2018-07-13T07:03:11.716Z,60.93
2018-07-13T07:04:12.265Z,60.83
2018-07-13T07:05:11.694Z,60.61
2018-07-13T07:06:11.752Z,60.31
2018-07-13T07:07:11.676Z,60.11
2018-07-13T07:08:11.667Z,59.58
2018-07-13T07:09:11.653Z,58.98
2018-07-13T07:10:11.642Z,59.18
2018-07-13T07:11:11.699Z,58.36
2018-07-13T07:12:11.622Z,58.25
2018-07-13T07:13:11.615Z,58.65
2018-07-13T07:14:11.608Z,58.95
2018-07-13T07:15:11.592Z,57.86
2018-07-13T07:16:11.657Z,58.06
2018-07-13T07:17:11.569Z,58.06
2018-07-13T07:18:11.562Z,58.36
2018-07-13T07:19:11.555Z,58.65
2018-07-13T07:20:11.557Z,58.15
2018-07-13T07:21:11.599Z,57.43
2018-07-13T07:22:11.522Z,57.82
2018-07-13T07:23:11.511Z,58.20
2018-07-13T07:24:11.500Z,57.70
2018-07-13T07:25:12.265Z,57.10
2018-07-13T07:26:11.551Z,56.38
2018-07-13T07:27:11.472Z,56.87
2018-07-13T07:28:11.463Z,56.08
2018-07-13T07:29:11.449Z,55.98
2018-07-13T07:30:11.441Z,56.75
2018-07-13T07:31:12.265Z,56.02
2018-07-13T07:32:11.495Z,56.12
2018-07-13T07:33:11.410Z,56.10
2018-07-13T07:34:11.402Z,55.20
2018-07-13T07:35:11.458Z,54.38
2018-07-13T07:36:11.382Z,54.38
2018-07-13T07:37:11.436Z,54.78
2018-07-13T07:38:11.368Z,54.06
2018-07-13T07:39:11.349Z,53.06
2018-07-13T07:40:11.340Z,53.33
2018-07-13T07:41:11.332Z,53.21
2018-07-13T07:42:11.387Z,53.01
2018-07-13T07:43:11.320Z,52.39
2018-07-13T07:44:11.301Z,52.09
2018-07-13T07:45:11.293Z,51.89
2018-07-13T07:46:12.263Z,51.57
2018-07-13T07:47:11.338Z,51.57
2018-07-13T07:48:11.271Z,50.38
2018-07-13T07:49:11.258Z,51.15
2018-07-13T07:50:11.252Z,50.56
2018-07-13T07:51:11.236Z,50.95
2018-07-13T07:52:11.293Z,51.25
2018-07-13T07:53:11.219Z,50.34
2018-07-13T07:54:11.210Z,50.01
2018-07-13T07:55:11.202Z,50.21
2018-07-13T07:56:11.189Z,50.41
2018-07-13T07:57:11.247Z,49.42
2018-07-13T07:58:11.174Z,49.52
2018-07-13T07:59:11.161Z,50.41
2018-07-13T08:00:11.153Z,49.32
2018-07-13T08:01:11.142Z,49.10
2018-07-13T08:02:11.203Z,48.90
2018-07-13T08:03:11.125Z,48.30
2018-07-13T08:04:11.122Z,49.07
2018-07-13T08:05:11.116Z,49.49
2018-07-13T08:06:11.204Z,47.39
2018-07-13T08:07:11.767Z,48.36
2018-07-13T08:08:11.081Z,47.07
2018-07-13T08:09:11.070Z,46.95
2018-07-13T08:10:11.059Z,47.25
2018-07-13T08:11:11.051Z,46.78
2018-07-13T08:12:11.111Z,47.86
2018-07-13T08:13:11.033Z,48.46
2018-07-13T08:14:11.300Z,48.36
2018-07-13T08:15:11.014Z,47.66
2018-07-13T08:16:11.003Z,47.94
2018-07-13T08:17:11.000Z,46.63
2018-07-13T08:18:11.053Z,46.44
2018-07-13T08:19:10.983Z,46.04
2018-07-13T08:20:11.046Z,46.91
2018-07-13T08:21:10.961Z,46.48
2018-07-13T08:22:10.952Z,45.70
2018-07-13T08:23:11.011Z,46.09
2018-07-13T08:24:10.936Z,44.79
2018-07-13T08:25:10.924Z,45.67
2018-07-13T08:26:10.923Z,44.39
2018-07-13T08:27:10.908Z,44.59
2018-07-13T08:28:11.346Z,44.69
2018-07-13T08:29:10.890Z,44.27
2018-07-13T08:30:10.879Z,45.16
2018-07-13T08:31:10.877Z,44.84
2018-07-13T08:32:10.862Z,44.25
2018-07-13T08:33:10.920Z,44.25
2018-07-13T08:34:10.845Z,44.62
2018-07-13T08:35:10.837Z,43.93
2018-07-13T08:36:10.828Z,43.74
2018-07-13T08:37:10.885Z,43.91
2018-07-13T08:38:10.872Z,43.82
2018-07-13T08:39:10.809Z,43.71
2018-07-13T08:40:10.795Z,43.79
2018-07-13T08:41:10.786Z,43.30
2018-07-13T08:42:10.778Z,43.18
2018-07-13T08:43:10.835Z,42.38
2018-07-13T08:44:10.783Z,41.49
2018-07-13T08:45:10.764Z,41.59
2018-07-13T08:46:10.757Z,41.86
2018-07-13T08:47:10.733Z,41.94
2018-07-13T08:48:10.794Z,41.25
2018-07-13T08:49:11.267Z,41.03
2018-07-13T08:50:10.711Z,40.45
2018-07-13T08:51:10.781Z,40.06
2018-07-13T08:52:10.699Z,40.62
2018-07-13T08:53:10.749Z,39.84
2018-07-13T08:54:10.677Z,39.64
2018-07-13T08:55:10.669Z,39.53
2018-07-13T08:56:10.667Z,39.33
2018-07-13T08:57:10.655Z,40.68
2018-07-13T08:58:10.710Z,39.70
2018-07-13T08:59:10.639Z,39.70
2018-07-13T09:00:10.631Z,38.92
2018-07-13T09:01:10.625Z,39.31
2018-07-13T09:02:10.613Z,39.14
2018-07-13T09:03:10.671Z,39.72
2018-07-13T09:04:10.617Z,39.31
2018-07-13T09:05:10.589Z,39.80
2018-07-13T09:06:10.580Z,38.51
2018-07-13T09:07:10.574Z,38.31
2018-07-13T09:08:10.632Z,38.31
2018-07-13T09:09:10.561Z,38.60
2018-07-13T09:10:11.268Z,38.02
2018-07-13T09:11:10.540Z,38.31
2018-07-13T09:12:10.540Z,37.71
2018-07-13T09:13:10.598Z,37.98
2018-07-13T09:14:10.582Z,38.18
2018-07-13T09:15:10.524Z,36.80
2018-07-13T09:16:10.501Z,36.69
2018-07-13T09:17:10.495Z,36.59
2018-07-13T09:18:10.489Z,37.16
2018-07-13T09:19:10.544Z,35.89
2018-07-13T09:20:10.473Z,35.68
2018-07-13T09:21:10.464Z,35.87
2018-07-13T09:22:10.459Z,36.36
2018-07-13T09:23:10.447Z,35.56
2018-07-13T09:24:10.577Z,35.64
2018-07-13T09:25:10.431Z,35.45
2018-07-13T09:26:10.433Z,35.74
2018-07-13T09:27:10.419Z,35.94
2018-07-13T09:28:10.413Z,36.13
2018-07-13T09:29:10.466Z,35.94
2018-07-13T09:30:10.391Z,35.55
2018-07-13T09:31:11.314Z,35.92
2018-07-13T09:32:10.375Z,34.96
2018-07-13T09:33:10.374Z,34.67
2018-07-13T09:34:10.429Z,34.84
2018-07-13T09:35:10.363Z,34.34
2018-07-13T09:36:10.343Z,33.93
2018-07-13T09:37:10.338Z,33.53
2018-07-13T09:38:10.335Z,33.61
2018-07-13T09:39:10.407Z,32.82
2018-07-13T09:40:10.320Z,34.00
2018-07-13T09:41:10.315Z,34.01
2018-07-13T09:42:10.304Z,33.51
2018-07-13T09:43:10.292Z,34.29
2018-07-13T09:44:10.359Z,34.00
2018-07-13T09:45:10.279Z,33.51
2018-07-13T09:46:10.273Z,32.34
2018-07-13T09:47:10.264Z,33.59
2018-07-13T09:48:18.349Z,32.31
2018-07-13T09:49:10.319Z,31.92
2018-07-13T09:50:10.252Z,32.20
2018-07-13T09:51:10.234Z,32.39
2018-07-13T09:52:10.228Z,31.90
2018-07-13T09:53:10.222Z,31.51
2018-07-13T09:54:10.333Z,32.37
2018-07-13T09:55:10.205Z,32.28
2018-07-13T09:56:10.196Z,31.00
2018-07-13T09:57:10.193Z,30.62
2018-07-13T09:58:10.191Z,31.40
2018-07-13T09:59:10.243Z,31.30
2018-07-13T10:00:10.174Z,31.11
2018-07-13T10:01:10.162Z,30.52
2018-07-13T10:02:10.154Z,31.30
2018-07-13T10:03:10.162Z,31.00
2018-07-13T10:04:10.209Z,30.41
2018-07-13T10:05:10.137Z,30.30
2018-07-13T10:06:10.134Z,30.48
2018-07-13T10:07:10.123Z,29.30
2018-07-13T10:08:10.117Z,29.00
2018-07-13T10:09:10.379Z,29.68
2018-07-13T10:10:10.101Z,29.48
2018-07-13T10:11:10.100Z,29.19
2018-07-13T10:12:10.091Z,28.89
2018-07-13T10:13:10.084Z,28.80
2018-07-13T10:14:10.147Z,27.93
2018-07-13T10:15:10.075Z,27.93
2018-07-13T10:16:10.060Z,28.51
2018-07-13T10:17:10.052Z,28.81
2018-07-13T10:18:10.073Z,28.53
2018-07-13T10:19:10.041Z,29.21
2018-07-13T10:20:10.101Z,27.45
2018-07-13T10:21:10.027Z,27.54
2018-07-13T10:22:10.018Z,27.53
2018-07-13T10:23:10.013Z,28.19
2018-07-13T10:24:10.013Z,27.11
2018-07-13T10:25:10.073Z,27.39
2018-07-13T10:26:09.992Z,26.70
2018-07-13T10:27:09.984Z,26.98
2018-07-13T10:28:09.978Z,26.78
2018-07-13T10:29:09.982Z,26.50
2018-07-13T10:30:10.362Z,27.09
2018-07-13T10:31:09.959Z,27.37
2018-07-13T10:32:09.953Z,27.00
2018-07-13T10:33:09.949Z,26.61
2018-07-13T10:34:09.938Z,26.21
2018-07-13T10:35:09.999Z,26.41
2018-07-13T10:36:09.932Z,26.68
2018-07-13T10:37:09.922Z,26.87
2018-07-13T10:38:09.913Z,26.48
2018-07-13T10:39:09.910Z,26.37
2018-07-13T10:40:09.973Z,25.10
2018-07-13T10:41:09.896Z,25.85
2018-07-13T10:42:09.891Z,24.79
2018-07-13T10:43:09.893Z,24.88
2018-07-13T10:44:09.879Z,25.26
2018-07-13T10:45:09.947Z,24.67
2018-07-13T10:46:09.868Z,24.48
2018-07-13T10:47:09.862Z,24.86
2018-07-13T10:48:09.851Z,24.86
2018-07-13T10:49:09.850Z,24.09
2018-07-13T10:50:09.909Z,24.76
2018-07-13T10:51:10.780Z,24.69
2018-07-13T10:52:09.834Z,24.79
2018-07-13T10:53:09.820Z,24.49
2018-07-13T10:54:09.817Z,25.15
2018-07-13T10:55:09.877Z,24.85
2018-07-13T10:56:09.800Z,23.97
2018-07-13T10:57:09.800Z,22.72
2018-07-13T10:58:09.789Z,23.57
2018-07-13T10:59:09.786Z,23.92
2018-07-13T11:00:09.841Z,24.92
2018-07-13T11:01:09.769Z,24.90
2018-07-13T11:02:09.768Z,24.82
2018-07-13T11:03:09.755Z,26.50
2018-07-13T11:04:09.749Z,24.92
2018-07-13T11:05:09.820Z,25.09
2018-07-13T11:06:09.738Z,24.51
2018-07-13T11:07:09.729Z,24.21
2018-07-13T11:08:09.746Z,23.52
2018-07-13T11:09:09.715Z,23.14
2018-07-13T11:10:09.776Z,22.75
2018-07-13T11:11:09.704Z,23.82
2018-07-13T11:12:10.278Z,24.50
2018-07-13T11:13:09.689Z,24.01
2018-07-13T11:14:09.684Z,23.71
2018-07-13T11:15:09.751Z,23.99
2018-07-13T11:16:09.678Z,23.79
2018-07-13T11:17:09.663Z,23.49
2018-07-13T11:18:09.658Z,22.80
2018-07-13T11:19:09.660Z,23.27
2018-07-13T11:20:09.713Z,22.89
2018-07-13T11:21:09.643Z,23.84
2018-07-13T11:22:09.635Z,22.58
2018-07-13T11:23:09.627Z,21.71
2018-07-13T11:24:09.656Z,22.88
2018-07-13T11:25:10.054Z,22.93
2018-07-13T11:26:09.609Z,24.43
2018-07-13T11:27:09.598Z,25.04
2018-07-13T11:28:09.592Z,25.66
2018-07-13T11:29:09.587Z,26.23
2018-07-13T11:30:09.653Z,25.03
2018-07-13T11:31:09.577Z,25.60
2018-07-13T11:32:09.882Z,24.16
2018-07-13T11:33:10.689Z,24.92
2018-07-13T11:34:10.471Z,24.02
2018-07-13T11:35:10.180Z,24.49
2018-07-13T11:36:10.199Z,23.60
2018-07-13T11:37:09.894Z,22.72
2018-07-13T11:38:09.706Z,22.99
2018-07-13T11:39:09.686Z,23.09
2018-07-13T11:40:09.682Z,22.50
2018-07-13T11:41:09.563Z,21.66
2018-07-13T11:42:09.496Z,22.44
2018-07-13T11:43:09.490Z,22.05
2018-07-13T11:44:09.513Z,22.05
2018-07-13T11:45:09.484Z,22.99
2018-07-13T11:46:09.547Z,22.01
2018-07-13T11:47:09.464Z,21.14
2018-07-13T11:48:09.464Z,22.38
2018-07-13T11:49:09.450Z,21.88
2018-07-13T11:50:09.444Z,20.54
2018-07-13T11:51:09.505Z,20.73
2018-07-13T11:52:09.453Z,20.73
2018-07-13T11:53:09.454Z,20.72
2018-07-13T11:54:10.259Z,20.70
2018-07-13T11:55:09.410Z,20.51
2018-07-13T11:56:09.855Z,20.40
2018-07-13T11:57:09.399Z,20.51
2018-07-13T11:58:09.393Z,20.32
2018-07-13T11:59:09.385Z,19.56
2018-07-13T12:00:09.419Z,20.35
2018-07-13T12:01:09.446Z,20.83
2018-07-13T12:02:09.368Z,20.36
2018-07-13T12:03:09.365Z,20.36
2018-07-13T12:04:09.364Z,20.15
2018-07-13T12:05:09.354Z,19.96
2018-07-13T12:06:09.422Z,20.24
2018-07-13T12:07:09.341Z,19.75
2018-07-13T12:08:09.333Z,20.51
2018-07-13T12:09:09.341Z,19.74
2018-07-13T12:10:09.321Z,19.16
2018-07-13T12:11:09.380Z,20.21
2018-07-13T12:12:09.371Z,19.43
2018-07-13T12:13:09.307Z,18.38
2018-07-13T12:14:09.296Z,19.34
2018-07-13T12:15:10.256Z,18.68
2018-07-13T12:16:09.282Z,19.82
2018-07-13T12:17:09.349Z,19.92
2018-07-13T12:18:09.536Z,20.01
2018-07-13T12:19:09.268Z,18.96
2018-07-13T12:20:09.257Z,19.04
2018-07-13T12:21:09.254Z,19.51
2018-07-13T12:22:09.314Z,19.51
2018-07-13T12:23:09.244Z,19.25
2018-07-13T12:24:09.276Z,20.64
2018-07-13T12:25:09.230Z,20.97
2018-07-13T12:26:09.222Z,20.70
2018-07-13T12:27:09.283Z,22.96
2018-07-13T12:28:09.205Z,21.81
2018-07-13T12:29:09.199Z,22.08
2018-07-13T12:30:09.190Z,21.68
2018-07-13T12:31:09.188Z,20.70
2018-07-13T12:32:09.250Z,21.47
2018-07-13T12:33:09.173Z,21.66
2018-07-13T12:34:09.169Z,22.03
2018-07-13T12:35:09.167Z,20.39
2018-07-13T12:36:09.744Z,20.17
2018-07-13T12:37:09.211Z,20.07
2018-07-13T12:38:09.142Z,20.84
2018-07-13T12:39:09.135Z,20.15
2018-07-13T12:40:09.138Z,19.58
2018-07-13T12:41:09.119Z,19.96
2018-07-13T12:42:09.180Z,19.58
2018-07-13T12:43:09.115Z,19.20
2018-07-13T12:44:09.104Z,19.20
2018-07-13T12:45:09.093Z,19.59
2018-07-13T12:46:09.116Z,19.59
2018-07-13T12:47:09.148Z,19.78
2018-07-13T12:48:09.078Z,19.59
2018-07-13T12:49:09.138Z,18.91
2018-07-13T12:50:09.064Z,19.67
2018-07-13T12:51:09.066Z,18.80
2018-07-13T12:52:09.117Z,18.22
2018-07-13T12:53:09.047Z,18.02
2018-07-13T12:54:09.104Z,18.30